ETEB/QOB METAR and TAF weather

Enter ICAO airport designator
Station Type Date Time Source
ETEB METAR 2019/12/09 05:56 UTC NOAA

ETEB 090556Z AUTO 21008KT 9999 FEW019 SCT033 05/05 A2964 RMK AO2 RAB06E24DZB24E25 SLP059 P0000 60000 T00500049 10061 20047 55006 FZRANO $


Station Type Date Time Source
ETEB Decoded METAR 2019/12/09 05:56 UTC NOAA

Ansbach / Katterbach, Germany (ETEB) 49-19N 010-38E 476M
Dec 09, 2019 - 12:56 AM EST / 2019.12.09 0556 UTC
Wind: from the SSW (210 degrees) at 9 MPH (8 KT):0
Visibility: greater than 7 mile(s):0
Sky conditions: partly cloudy
Precipitation last hour: A trace
Temperature: 41.0 F (5.0 C)
Dew Point: 40.8 F (4.9 C)
Relative Humidity: 99%
Pressure (altimeter): 29.64 in. Hg (1003 hPa)
Pressure tendency: 0.02 inches (0.6 hPa) lower than three hours ago
ob: ETEB 090556Z AUTO 21008KT 9999 FEW019 SCT033 05/05 A2964 RMK AO2 RAB06E24DZB24E25 SLP059 P0000 60000 T00500049 10061 20047 55006 FZRANO
cycle: 6

Station Type Date Time Source
ETEB TAF 2019/12/09 03:53 UTC NOAA

TAF
AMD ETEB 090347Z 0903/1004 21012KT 9000 -SHRA BKN020 QNH2964INS
BECMG 0904/0905 23010G15KT 9999 NSW BKN025 QNH2958INS
BECMG 0911/0912 23015G20KT 9000 -SHRA BKN020 QNH2958INS
BECMG 0920/0921 23010G15KT 8000 -SHRA BKN010 QNH2985INS TX10/0912Z TN04/0922Z

Example: see airport list